Time;durP1;ratioP1;P1;durP2;ratioP2;P2;SDS_P1;SDS_P2;PMS_P1;PMS_P2;Temp;Humidity;BMP_temperature;BMP_pressure;BME280_temperature;BME280_humidity;BME280_pressure;Samples;Min_cycle;Max_cycle;Signal;HPM_P1;HPM_P2
2022/01/02 00:02:22;;;;;;;6.22;1.58;;;;;;;11.54;83.86;101538.63;5057803;28;20045;-75
2022/01/02 00:04:50;;;;;;;2.83;1.63;;;;;;;11.54;84.23;101531.56;5055008;28;20484;-74
2022/01/02 00:07:18;;;;;;;4.95;1.95;;;;;;;11.58;84.04;101524.28;5055850;28;20055;-75
2022/01/02 00:09:46;;;;;;;2.40;1.58;;;;;;;11.57;83.97;101520.00;5058540;28;20355;-72
2022/01/02 00:12:16;;;;;;;4.63;1.55;;;;;;;11.64;83.24;101518.63;5056558;28;20050;-76
2022/01/02 00:14:44;;;;;;;5.57;2.25;;;;;;;11.72;83.49;101537.34;5063636;28;20128;-73
2022/01/02 00:17:13;;;;;;;2.80;1.27;;;;;;;11.86;82.45;101550.34;5064468;28;20059;-72
2022/01/02 00:19:45;;;;;;;6.07;1.52;;;;;;;11.84;82.21;101545.19;5058370;28;20047;-73
2022/01/02 00:22:16;;;;;;;4.95;1.73;;;;;;;11.83;82.43;101538.25;5064692;28;20048;-72
2022/01/02 00:24:44;;;;;;;3.47;1.50;;;;;;;11.80;82.50;101533.19;5059482;28;20087;-73
2022/01/02 00:27:12;;;;;;;3.67;1.70;;;;;;;11.85;82.59;101533.72;5065480;28;20040;-73
2022/01/02 00:29:40;;;;;;;4.25;1.38;;;;;;;11.92;81.63;101549.91;5060892;28;20047;-73
2022/01/02 00:32:07;;;;;;;2.55;1.38;;;;;;;11.90;82.17;101547.38;5065875;28;20117;-71
2022/01/02 00:34:36;;;;;;;3.15;1.48;;;;;;;12.05;81.11;101543.63;5065676;28;20059;-73
2022/01/02 00:37:03;;;;;;;6.70;1.70;;;;;;;12.03;81.55;101545.53;5046058;28;20106;-73
2022/01/02 00:39:29;;;;;;;2.40;1.35;;;;;;;12.07;81.08;101547.00;5069789;28;20040;-73
2022/01/02 00:41:58;;;;;;;2.38;1.33;;;;;;;12.00;81.70;101540.50;5062079;28;20036;-72
2022/01/02 00:44:33;;;;;;;3.05;1.30;;;;;;;12.02;81.14;101546.53;5063241;28;20064;-73
2022/01/02 00:47:07;;;;;;;7.78;1.98;;;;;;;11.91;82.53;101538.53;5064332;28;20058;-74
2022/01/02 00:49:40;;;;;;;2.95;1.60;;;;;;;11.90;82.87;101547.38;5064512;28;20048;-73
2022/01/02 00:52:12;;;;;;;6.00;1.92;;;;;;;12.00;81.96;101558.94;5063048;28;20186;-72
2022/01/02 00:54:44;;;;;;;4.78;1.65;;;;;;;12.03;82.24;101564.84;5047161;28;20058;-71
2022/01/02 00:57:17;;;;;;;1.70;0.90;;;;;;;12.08;81.22;101557.44;5067623;28;20040;-73
2022/01/02 00:59:50;;;;;;;5.93;1.60;;;;;;;12.13;82.38;101550.06;5052630;28;20076;-73
2022/01/02 01:02:19;;;;;;;4.18;1.48;;;;;;;12.06;82.66;101548.78;5069324;28;20178;-73
2022/01/02 01:04:48;;;;;;;6.07;1.40;;;;;;;12.01;83.38;101550.09;5062596;28;20081;-73
2022/01/02 01:07:15;;;;;;;2.08;1.13;;;;;;;11.98;83.03;101546.84;5063035;28;20044;-72
2022/01/02 01:09:42;;;;;;;2.35;1.33;;;;;;;11.92;84.33;101539.38;5061794;28;20053;-74
2022/01/02 01:12:10;;;;;;;3.35;1.52;;;;;;;11.87;84.77;101542.31;5060732;28;20499;-73
2022/01/02 01:14:37;;;;;;;5.00;1.25;;;;;;;11.83;85.05;101548.78;5061486;28;20105;-73
2022/01/02 01:17:04;;;;;;;4.13;1.63;;;;;;;11.87;84.53;101547.59;5064333;28;20086;-72
2022/01/02 01:19:31;;;;;;;3.08;1.38;;;;;;;11.92;84.38;101552.53;5065003;28;20039;-71
2022/01/02 01:22:00;;;;;;;5.47;1.67;;;;;;;11.90;85.06;101542.13;5064267;28;21601;-72
2022/01/02 01:24:29;;;;;;;3.13;1.52;;;;;;;11.81;86.16;101545.41;5065201;28;20052;-72
2022/01/02 01:26:56;;;;;;;2.08;1.15;;;;;;;11.72;86.38;101547.88;5067984;28;20059;-72
2022/01/02 01:29:23;;;;;;;3.85;1.40;;;;;;;11.63;86.95;101551.16;5068412;28;20041;-74
2022/01/02 01:31:50;;;;;;;3.30;1.33;;;;;;;11.59;87.41;101545.25;5075185;28;20123;-72
2022/01/02 01:34:16;;;;;;;5.25;1.88;;;;;;;11.58;87.31;101543.56;5067519;28;20123;-74
2022/01/02 01:36:43;;;;;;;2.67;1.52;;;;;;;11.43;88.22;101520.94;5066159;28;20534;-72
2022/01/02 01:39:11;;;;;;;9.10;1.85;;;;;;;11.33;89.12;101525.16;5064368;28;20059;-73
2022/01/02 01:41:39;;;;;;;2.08;1.08;;;;;;;11.30;89.61;101524.53;5063529;28;20041;-74
2022/01/02 01:44:25;;;;;;;2.92;1.20;;;;;;;11.34;89.45;101526.84;5064998;28;20075;-73
2022/01/02 01:46:55;;;;;;;6.18;1.35;;;;;;;11.35;89.63;101541.69;5065402;28;20079;-73
2022/01/02 01:49:25;;;;;;;5.65;1.50;;;;;;;11.36;89.46;101524.09;5065646;28;20053;-74
2022/01/02 01:51:52;;;;;;;3.30;1.25;;;;;;;11.32;89.51;101526.09;5064131;28;20128;-73
2022/01/02 01:54:21;;;;;;;5.00;1.60;;;;;;;11.27;90.55;101524.72;5062159;28;20537;-73
2022/01/02 01:56:50;;;;;;;3.65;1.15;;;;;;;11.19;91.50;101522.66;5066528;28;20032;-75
2022/01/02 01:59:17;;;;;;;4.18;1.52;;;;;;;11.12;91.70;101517.91;5063177;28;20035;-75
2022/01/02 02:01:44;;;;;;;3.05;1.70;;;;;;;11.04;93.27;101514.16;5069737;28;20036;-74
2022/01/02 02:04:10;;;;;;;3.25;1.25;;;;;;;10.97;93.49;101512.84;5078251;28;20056;-73
2022/01/02 02:06:37;;;;;;;2.85;1.58;;;;;;;10.89;93.78;101500.25;5076324;28;20107;-73
2022/01/02 02:09:07;;;;;;;2.97;1.50;;;;;;;10.88;94.33;101484.56;5047627;28;20044;-74
2022/01/02 02:11:38;;;;;;;2.60;1.25;;;;;;;10.82;94.68;101487.63;5063491;28;20051;-74
2022/01/02 02:14:06;;;;;;;2.58;1.42;;;;;;;10.82;95.21;101495.50;5061389;28;20047;-73
2022/01/02 02:16:34;;;;;;;12.32;1.73;;;;;;;10.75;95.67;101504.75;5059098;28;20051;-74
2022/01/02 02:19:00;;;;;;;2.92;1.52;;;;;;;10.72;96.52;101499.69;5062146;28;20040;-74
2022/01/02 02:21:30;;;;;;;7.35;1.98;;;;;;;10.68;96.88;101492.97;5062090;28;20067;-74
2022/01/02 02:23:58;;;;;;;2.63;1.77;;;;;;;10.64;96.97;101492.34;5058924;28;20052;-73
2022/01/02 02:26:25;;;;;;;2.47;1.70;;;;;;;10.56;96.99;101472.78;5063493;28;20036;-74
2022/01/02 02:28:52;;;;;;;4.05;1.90;;;;;;;10.59;96.94;101476.03;5062195;28;20054;-75
2022/01/02 02:31:18;;;;;;;6.10;1.58;;;;;;;10.58;97.56;101468.25;5060866;28;20441;-74
2022/01/02 02:33:45;;;;;;;4.03;2.17;;;;;;;10.59;97.24;101460.28;5059788;28;20127;-75
2022/01/02 02:36:13;;;;;;;2.53;1.63;;;;;;;10.60;96.96;101450.63;5056533;28;20054;-73
2022/01/02 02:38:41;;;;;;;3.05;1.95;;;;;;;10.60;97.93;101440.13;5059349;28;20056;-75
2022/01/02 02:41:08;;;;;;;6.88;2.15;;;;;;;10.56;97.51;101426.34;5060431;28;21946;-74
2022/01/02 02:43:43;;;;;;;7.68;2.05;;;;;;;10.54;97.60;101422.16;5043977;28;20039;-74
2022/01/02 02:49:00;;;;;;;3.25;1.70;;;;;;;10.47;98.55;101399.84;5060632;28;20044;-74
2022/01/02 02:51:33;;;;;;;3.50;1.63;;;;;;;10.44;98.93;101400.06;5067565;28;20035;-74
2022/01/02 02:54:01;;;;;;;3.33;1.95;;;;;;;10.43;98.19;101404.47;5072313;28;20051;-73
2022/01/02 02:56:41;;;;;;;5.07;2.13;;;;;;;10.41;98.68;101405.53;5068434;28;20051;-74
2022/01/02 02:59:09;;;;;;;6.18;1.88;;;;;;;10.40;97.98;101414.34;5066075;28;20035;-74
2022/01/02 03:01:36;;;;;;;5.10;2.17;;;;;;;10.41;98.53;101416.03;5058249;28;20132;-74
2022/01/02 03:04:03;;;;;;;7.10;2.55;;;;;;;10.40;97.63;101414.34;5060844;28;20070;-74
2022/01/02 03:06:30;;;;;;;3.42;2.03;;;;;;;10.40;97.65;101414.34;5059808;28;20046;-75
2022/01/02 03:09:02;;;;;;;8.10;1.70;;;;;;;10.51;96.95;101407.41;5058850;28;20129;-74
2022/01/02 03:11:34;;;;;;;4.78;2.20;;;;;;;10.53;96.87;101404.69;5055693;28;21042;-73
2022/01/02 03:14:00;;;;;;;4.30;1.83;;;;;;;10.56;97.30;101404.47;5061656;28;20044;-75
2022/01/02 03:16:27;;;;;;;4.32;1.70;;;;;;;10.59;97.10;101393.75;5060373;28;20093;-73
2022/01/02 03:18:54;;;;;;;4.30;1.92;;;;;;;10.60;96.66;101395.44;5062128;28;20055;-75
2022/01/02 03:21:21;;;;;;;5.07;2.00;;;;;;;10.61;96.59;101405.84;5059091;28;20130;-74
2022/01/02 03:23:51;;;;;;;10.60;2.53;;;;;;;10.63;96.44;101403.09;5061924;28;20036;-74
2022/01/02 03:26:18;;;;;;;4.93;1.70;;;;;;;10.67;96.11;101405.41;5044713;28;20047;-74
2022/01/02 03:28:47;;;;;;;7.47;2.78;;;;;;;10.68;96.30;101403.63;5040657;28;20504;-73
2022/01/02 03:31:13;;;;;;;4.78;1.88;;;;;;;10.72;96.55;101413.84;5061022;28;20158;-72
2022/01/02 03:33:40;;;;;;;7.53;2.47;;;;;;;10.71;96.46;101392.94;5059830;28;20128;-73
2022/01/02 03:36:07;;;;;;;9.57;2.55;;;;;;;10.71;96.35;101393.75;5066827;28;20048;-74
2022/01/02 03:38:34;;;;;;;4.50;1.65;;;;;;;10.71;96.92;101385.03;5065503;28;20065;-76
2022/01/02 03:41:01;;;;;;;5.80;2.40;;;;;;;10.75;96.48;101379.44;5068162;28;20048;-73
2022/01/02 03:43:29;;;;;;;6.82;2.33;;;;;;;10.82;95.62;101371.97;5071267;28;20050;-73
2022/01/02 03:45:57;;;;;;;7.82;2.40;;;;;;;10.83;95.73;101365.78;5066717;28;20040;-72
2022/01/02 03:48:24;;;;;;;5.38;2.53;;;;;;;10.78;96.19;101352.13;5044107;28;20056;-72
2022/01/02 03:50:50;;;;;;;3.05;1.75;;;;;;;10.73;96.77;101355.09;5062320;28;20139;-74
2022/01/02 03:53:17;;;;;;;7.50;1.88;;;;;;;10.71;96.51;101358.78;5032019;28;20044;-73
2022/01/02 03:55:44;;;;;;;3.85;2.08;;;;;;;10.67;97.00;101360.75;5061863;28;20064;-73
2022/01/02 03:58:10;;;;;;;5.53;1.77;;;;;;;10.72;96.57;101373.56;5067884;28;20048;-74
2022/01/02 04:00:37;;;;;;;9.15;2.22;;;;;;;10.70;96.87;101376.31;5060935;28;20044;-73
2022/01/02 04:03:05;;;;;;;5.18;1.73;;;;;;;10.70;96.95;101380.75;5062742;28;20178;-72
2022/01/02 04:05:32;;;;;;;11.23;2.30;;;;;;;10.73;96.98;101375.25;5063759;28;20692;-72
2022/01/02 04:07:58;;;;;;;10.65;2.10;;;;;;;10.75;97.24;101368.09;5064498;28;20114;-73
2022/01/02 04:10:25;;;;;;;9.90;2.25;;;;;;;10.81;97.03;101362.41;5062229;28;23564;-74
2022/01/02 04:12:52;;;;;;;14.20;1.98;;;;;;;10.81;96.97;101354.53;5063263;28;20058;-73
2022/01/02 04:15:18;;;;;;;4.47;1.70;;;;;;;10.80;97.29;101344.97;5064988;28;20044;-73
2022/01/02 04:17:45;;;;;;;7.47;2.20;;;;;;;10.76;96.66;101333.81;5060175;28;20048;-74
2022/01/02 04:20:14;;;;;;;3.63;1.98;;;;;;;10.92;96.92;101329.16;5067916;28;20051;-75
2022/01/02 04:22:41;;;;;;;7.25;2.55;;;;;;;10.90;96.70;101320.56;5060796;28;20048;-74
2022/01/02 04:25:09;;;;;;;10.77;2.10;;;;;;;10.96;96.72;101314.00;5047580;28;20044;-74
2022/01/02 04:27:36;;;;;;;7.82;2.28;;;;;;;10.93;96.19;101309.81;5061826;28;20078;-73
2022/01/02 04:30:07;;;;;;;7.18;1.83;;;;;;;10.93;95.93;101316.88;5066650;28;20131;-74
2022/01/02 04:32:34;;;;;;;5.85;2.08;;;;;;;10.93;96.38;101319.50;5064757;28;20067;-75
2022/01/02 04:35:00;;;;;;;3.88;1.95;;;;;;;10.92;96.57;101317.81;5068757;28;20067;-74
2022/01/02 04:37:29;;;;;;;14.45;2.50;;;;;;;10.97;96.39;101311.28;5067408;28;20070;-74
2022/01/02 04:39:55;;;;;;;5.00;2.45;;;;;;;10.97;95.89;101307.81;5079859;28;20064;-73
2022/01/02 04:42:22;;;;;;;10.40;2.58;;;;;;;11.00;95.76;101302.34;5078454;28;20032;-73
2022/01/02 04:44:49;;;;;;;14.15;2.70;;;;;;;11.07;95.42;101300.94;5077051;28;20050;-74
2022/01/02 04:47:18;;;;;;;4.10;1.70;;;;;;;11.05;95.27;101292.31;5045369;28;20640;-73
2022/01/02 04:49:55;;;;;;;4.45;1.90;;;;;;;11.13;94.97;101284.72;5066916;28;20044;-72
2022/01/02 04:52:22;;;;;;;4.03;2.30;;;;;;;11.06;95.50;101296.63;5062615;28;20071;-75
2022/01/02 04:54:50;;;;;;;4.30;1.88;;;;;;;11.07;95.94;101291.28;5062161;28;20121;-74
2022/01/02 04:57:17;;;;;;;7.68;2.28;;;;;;;11.04;95.69;101293.28;5048088;28;20083;-77
2022/01/02 04:59:43;;;;;;;19.65;2.72;;;;;;;11.08;95.72;101286.84;5067300;28;20073;-73
2022/01/02 05:02:10;;;;;;;11.82;2.83;;;;;;;11.06;96.09;101283.47;5056403;28;20164;-74
2022/01/02 05:04:37;;;;;;;8.77;2.08;;;;;;;11.08;95.42;101271.06;5061929;28;20059;-73
2022/01/02 05:07:05;;;;;;;7.28;1.98;;;;;;;11.09;95.68;101278.00;5058304;28;20075;-73
2022/01/02 05:09:32;;;;;;;9.05;2.35;;;;;;;11.02;96.04;101277.59;5059873;28;20095;-73
2022/01/02 05:12:00;;;;;;;4.78;2.30;;;;;;;10.97;95.98;101260.50;5060263;28;20052;-74
2022/01/02 05:14:27;;;;;;;4.10;1.73;;;;;;;10.98;96.19;101257.78;5060868;28;20127;-73
2022/01/02 05:16:54;;;;;;;4.82;1.98;;;;;;;10.93;96.54;101257.25;5064069;28;20038;-73
2022/01/02 05:19:20;;;;;;;4.13;2.10;;;;;;;10.96;96.44;101266.69;5059580;28;20051;-74
2022/01/02 05:21:47;;;;;;;19.63;2.72;;;;;;;10.97;96.21;101271.00;5062947;28;20048;-75
2022/01/02 05:24:13;;;;;;;5.65;1.90;;;;;;;11.01;95.82;101257.53;5064220;28;20119;-73
2022/01/02 05:26:40;;;;;;;3.75;1.98;;;;;;;11.02;95.77;101258.38;5064392;28;20080;-74
2022/01/02 05:29:08;;;;;;;9.60;1.65;;;;;;;11.01;95.55;101261.97;5064864;28;20173;-75
2022/01/02 05:31:35;;;;;;;10.98;2.05;;;;;;;11.01;96.40;101265.41;5059531;28;20135;-72
2022/01/02 05:34:01;;;;;;;9.15;1.83;;;;;;;11.03;95.93;101260.06;5062623;28;20052;-74
2022/01/02 05:36:29;;;;;;;4.00;1.85;;;;;;;11.03;95.89;101246.91;5060124;28;20047;-73
2022/01/02 05:38:55;;;;;;;4.55;1.85;;;;;;;11.03;96.11;101250.38;5061556;28;20141;-74
2022/01/02 05:41:22;;;;;;;15.35;2.92;;;;;;;11.03;95.90;101254.81;5062251;28;20040;-74
2022/01/02 05:43:49;;;;;;;7.63;2.10;;;;;;;11.02;95.97;101246.06;5065094;28;20048;-73
2022/01/02 05:46:17;;;;;;;12.20;1.70;;;;;;;11.01;95.91;101239.13;5061685;28;20122;-73
2022/01/02 05:48:44;;;;;;;11.23;2.50;;;;;;;10.99;95.37;101227.91;5060836;28;20048;-73
2022/01/02 05:51:11;;;;;;;4.72;1.92;;;;;;;11.06;95.11;101225.63;5057946;28;20037;-73
2022/01/02 05:53:38;;;;;;;7.10;1.83;;;;;;;11.08;94.85;101216.69;5067237;28;20036;-73
2022/01/02 05:56:04;;;;;;;7.78;2.20;;;;;;;11.10;94.88;101203.44;5061862;28;20047;-72
2022/01/02 05:58:31;;;;;;;3.85;2.28;;;;;;;11.04;95.23;101190.75;5049241;28;20040;-72
2022/01/02 06:00:58;;;;;;;15.52;2.47;;;;;;;11.03;95.36;101189.91;5064611;28;20044;-73
2022/01/02 06:03:26;;;;;;;4.43;1.77;;;;;;;11.03;95.81;101189.91;5059225;28;20063;-72
2022/01/02 06:05:53;;;;;;;8.65;1.80;;;;;;;11.01;95.96;101201.50;5063901;28;20063;-73
2022/01/02 06:08:19;;;;;;;10.88;2.00;;;;;;;10.97;96.09;101200.03;5058797;28;20052;-73
2022/01/02 06:10:46;;;;;;;11.85;2.53;;;;;;;10.94;96.39;101195.00;5062090;28;20040;-75
2022/01/02 06:13:12;;;;;;;7.88;2.03;;;;;;;10.96;96.02;101193.09;5060864;28;21094;-74
2022/01/02 06:15:39;;;;;;;5.72;2.13;;;;;;;11.02;95.82;101182.13;5066051;28;20040;-73
2022/01/02 06:18:06;;;;;;;2.72;1.67;;;;;;;11.01;95.69;101180.47;5063756;28;20047;-73
2022/01/02 06:20:34;;;;;;;10.55;2.13;;;;;;;11.04;95.43;101175.00;5071073;28;20079;-72
2022/01/02 06:23:00;;;;;;;8.25;2.17;;;;;;;11.00;95.25;101173.53;5068438;28;20035;-73
2022/01/02 06:25:29;;;;;;;5.13;1.88;;;;;;;10.97;96.28;101181.63;5054019;28;20052;-73
2022/01/02 06:27:56;;;;;;;6.38;1.92;;;;;;;10.94;96.30;101177.44;5064396;28;20502;-74
2022/01/02 06:30:23;;;;;;;8.77;1.90;;;;;;;10.99;95.23;101169.22;5061276;28;20132;-74
2022/01/02 06:32:54;;;;;;;3.55;1.50;;;;;;;11.04;95.08;101164.47;5061633;28;20049;-73
2022/01/02 06:35:23;;;;;;;4.68;2.08;;;;;;;11.04;94.92;101143.44;5056659;28;20048;-75
2022/01/02 06:37:53;;;;;;;11.88;2.25;;;;;;;11.05;95.06;101103.03;5064470;28;20047;-72
2022/01/02 06:40:20;;;;;;;6.43;1.88;;;;;;;11.09;94.42;101078.19;5062768;28;20059;-74
2022/01/02 06:42:47;;;;;;;4.32;1.80;;;;;;;11.04;94.33;101070.66;5058682;28;20051;-73
2022/01/02 06:45:14;;;;;;;6.93;1.67;;;;;;;11.03;94.71;101084.75;5042314;28;20518;-73
2022/01/02 06:47:40;;;;;;;9.13;1.88;;;;;;;11.01;94.13;101081.38;5060613;28;20055;-74
2022/01/02 06:50:08;;;;;;;6.97;1.60;;;;;;;10.92;94.98;101071.56;5070495;28;20044;-75
2022/01/02 06:52:35;;;;;;;3.60;1.58;;;;;;;10.96;94.73;101077.44;5071338;28;20067;-73
2022/01/02 06:55:03;;;;;;;12.55;1.90;;;;;;;11.13;93.05;101061.22;5072686;28;20032;-76
2022/01/02 06:57:29;;;;;;;4.18;1.55;;;;;;;11.18;92.92;101052.03;5058280;28;20394;-73
2022/01/02 06:59:56;;;;;;;2.58;1.48;;;;;;;11.34;91.56;101032.34;5075470;28;20040;-73
2022/01/02 07:02:22;;;;;;;3.05;1.48;;;;;;;11.35;91.03;101028.75;5071285;28;20040;-75
2022/01/02 07:04:49;;;;;;;8.70;2.00;;;;;;;11.34;91.36;101027.06;5071115;28;20050;-73
2022/01/02 07:07:16;;;;;;;2.47;1.40;;;;;;;11.35;90.86;101023.50;5069493;28;20085;-73
2022/01/02 07:09:42;;;;;;;7.10;1.38;;;;;;;11.42;90.52;101014.16;5073444;28;20055;-73
2022/01/02 07:12:11;;;;;;;6.57;2.17;;;;;;;11.40;90.24;101005.53;5047715;28;20820;-73
2022/01/02 07:14:38;;;;;;;5.10;1.30;;;;;;;11.47;90.07;100996.22;5073847;28;20071;-74
2022/01/02 07:17:04;;;;;;;6.78;2.17;;;;;;;11.47;89.91;100993.56;5086566;28;21253;-73
2022/01/02 07:19:31;;;;;;;4.57;1.70;;;;;;;11.49;90.41;100994.31;5065815;28;20056;-73
2022/01/02 07:21:59;;;;;;;4.45;1.52;;;;;;;11.48;90.89;100981.28;5068572;28;20040;-72
2022/01/02 07:24:26;;;;;;;6.93;1.77;;;;;;;11.48;90.94;100976.84;5066666;28;20040;-73
2022/01/02 07:26:52;;;;;;;11.43;1.92;;;;;;;11.43;91.70;100976.38;5077702;28;20032;-70
2022/01/02 07:29:21;;;;;;;6.70;1.70;;;;;;;11.42;91.08;100965.97;5070100;28;20043;-74
2022/01/02 07:31:48;;;;;;;8.68;1.50;;;;;;;11.41;90.93;100954.63;5073174;28;20085;-71
2022/01/02 07:34:14;;;;;;;9.77;2.17;;;;;;;11.45;90.61;100942.88;5071357;28;20097;-72
2022/01/02 07:36:44;;;;;;;5.20;2.03;;;;;;;11.44;90.43;100925.44;5076111;28;20067;-72
2022/01/02 07:39:13;;;;;;;2.90;1.60;;;;;;;11.54;89.88;100910.59;5070382;28;20318;-73
2022/01/02 07:41:40;;;;;;;7.40;1.50;;;;;;;11.55;89.66;100898.31;5073299;28;20055;-73
2022/01/02 07:44:07;;;;;;;2.05;1.10;;;;;;;11.61;89.22;100895.16;5070660;28;20051;-72
2022/01/02 07:46:35;;;;;;;19.35;1.98;;;;;;;11.68;88.58;100875.28;5070458;28;20048;-72
2022/01/02 07:49:01;;;;;;;7.68;2.05;;;;;;;11.68;88.47;100870.88;5067252;28;20036;-73
2022/01/02 07:51:29;;;;;;;6.40;1.95;;;;;;;11.69;88.68;100875.19;5072873;28;20036;-73
2022/01/02 07:53:55;;;;;;;4.38;1.52;;;;;;;11.75;88.16;100869.41;5071268;28;20032;-73
2022/01/02 07:56:22;;;;;;;11.90;1.88;;;;;;;11.71;88.46;100857.44;5072925;28;20044;-73
2022/01/02 07:58:48;;;;;;;6.88;1.70;;;;;;;11.82;87.43;100853.97;5056075;28;20044;-73
2022/01/02 08:01:15;;;;;;;6.90;1.85;;;;;;;11.81;87.74;100858.38;5068970;28;20044;-75
2022/01/02 08:03:43;;;;;;;3.95;1.38;;;;;;;11.83;87.08;100853.81;5071706;28;20045;-73
2022/01/02 08:06:11;;;;;;;10.63;1.58;;;;;;;11.92;86.63;100849.59;5059757;28;20048;-72
2022/01/02 08:08:37;;;;;;;5.50;2.45;;;;;;;11.93;86.06;100852.09;5069409;28;20141;-73
2022/01/02 08:11:04;;;;;;;11.98;2.03;;;;;;;11.99;85.34;100848.97;5065053;28;20051;-73
2022/01/02 08:13:31;;;;;;;12.57;2.58;;;;;;;11.95;86.17;100834.38;5075261;28;20062;-75
2022/01/02 08:15:57;;;;;;;14.95;1.85;;;;;;;12.07;85.56;100870.22;5069660;28;20135;-72
2022/01/02 08:18:24;;;;;;;7.55;2.20;;;;;;;12.06;85.02;100900.16;5061886;28;20051;-74
2022/01/02 08:20:52;;;;;;;9.55;1.73;;;;;;;11.99;86.22;100886.66;5045772;28;20131;-73
2022/01/02 08:23:18;;;;;;;7.32;1.60;;;;;;;12.10;85.21;100912.13;5067334;28;20560;-72
2022/01/02 08:25:45;;;;;;;2.85;1.60;;;;;;;12.07;85.14;100918.44;5075088;28;20044;-72
2022/01/02 08:28:12;;;;;;;11.05;2.60;;;;;;;11.99;86.02;100920.88;5071513;28;20052;-71
2022/01/02 08:30:41;;;;;;;5.78;1.67;;;;;;;12.10;85.03;100946.34;5056788;28;20059;-71
2022/01/02 08:33:08;;;;;;;2.97;1.20;;;;;;;12.23;81.76;100929.38;5067979;28;20051;-70
2022/01/02 08:35:34;;;;;;;4.82;1.13;;;;;;;12.32;81.07;100935.69;5056850;28;20096;-71
2022/01/02 08:38:02;;;;;;;1.45;0.80;;;;;;;12.56;78.39;100916.03;5073820;28;20107;-71
2022/01/02 08:40:29;;;;;;;2.40;1.40;;;;;;;12.56;79.11;100926.56;5061265;28;20052;-74
2022/01/02 08:42:56;;;;;;;2.42;1.10;;;;;;;12.52;79.71;100926.94;5082175;28;20063;-70
2022/01/02 08:45:23;;;;;;;3.10;1.20;;;;;;;12.45;79.38;100936.34;5077494;28;20052;-70
2022/01/02 08:47:50;;;;;;;4.95;0.98;;;;;;;12.57;77.06;100937.97;5076361;28;20048;-71
2022/01/02 08:50:17;;;;;;;1.67;0.73;;;;;;;12.61;78.03;100944.63;5070598;28;20040;-72
2022/01/02 08:52:44;;;;;;;3.30;1.08;;;;;;;12.51;79.46;100933.22;5057478;28;20058;-70
2022/01/02 08:55:12;;;;;;;1.20;0.80;;;;;;;12.69;77.04;100935.13;5057501;28;20127;-72
2022/01/02 08:57:39;;;;;;;10.82;1.52;;;;;;;12.72;76.81;100926.97;5060501;28;20048;-70
2022/01/02 09:00:07;;;;;;;2.83;1.15;;;;;;;12.65;77.62;100922.34;5077650;28;20050;-72
2022/01/02 09:02:33;;;;;;;5.13;1.25;;;;;;;12.69;77.28;100936.91;5060328;28;20093;-70
2022/01/02 09:05:01;;;;;;;2.65;1.23;;;;;;;12.70;76.53;100928.88;5076939;28;20126;-71
2022/01/02 09:07:29;;;;;;;4.55;0.88;;;;;;;12.86;74.87;100932.72;5054324;28;20040;-74
2022/01/02 09:09:56;;;;;;;2.95;1.40;;;;;;;12.95;73.83;100937.22;5078015;28;20135;-70
2022/01/02 09:12:24;;;;;;;2.50;0.90;;;;;;;13.07;73.00;100928.28;5058646;28;20052;-70
2022/01/02 09:14:53;;;;;;;2.67;1.10;;;;;;;13.12;71.55;100922.63;5076236;28;20047;-70
2022/01/02 09:17:19;;;;;;;1.80;0.90;;;;;;;13.12;72.78;100928.72;5049775;28;20085;-70
2022/01/02 09:19:46;;;;;;;1.80;1.02;;;;;;;13.06;73.10;100929.25;5074910;28;20048;-72
2022/01/02 09:22:13;;;;;;;4.10;1.08;;;;;;;13.16;70.44;100922.22;5053593;28;20047;-73
2022/01/02 09:24:39;;;;;;;13.18;1.27;;;;;;;13.25;70.77;100918.78;5071180;28;20044;-73
2022/01/02 09:27:06;;;;;;;2.28;0.88;;;;;;;13.30;71.50;100932.41;5067522;28;20257;-71
2022/01/02 09:29:34;;;;;;;4.60;1.10;;;;;;;13.36;70.60;100939.75;5065554;28;21026;-73
2022/01/02 09:32:03;;;;;;;3.88;1.27;;;;;;;13.37;71.13;100952.00;5069294;28;20132;-73
2022/01/02 09:34:29;;;;;;;5.90;1.33;;;;;;;13.27;73.16;100945.84;5064221;28;20044;-74
2022/01/02 09:36:56;;;;;;;3.00;1.40;;;;;;;13.27;71.60;100953.75;5071726;28;20044;-72
2022/01/02 09:39:22;;;;;;;4.68;1.30;;;;;;;13.31;71.88;100946.41;5071457;28;20048;-72
2022/01/02 09:41:49;;;;;;;5.28;1.23;;;;;;;13.36;71.08;100939.75;5072574;28;20041;-73
2022/01/02 09:44:16;;;;;;;3.03;1.27;;;;;;;13.39;71.75;100943.94;5068787;28;20056;-73
2022/01/02 09:46:44;;;;;;;4.60;1.52;;;;;;;13.41;72.03;100934.94;5070184;28;20123;-72
2022/01/02 09:49:11;;;;;;;3.38;1.40;;;;;;;13.43;71.71;100943.53;5075461;28;20113;-73
2022/01/02 09:51:37;;;;;;;5.47;1.27;;;;;;;13.45;71.74;100949.53;5080678;28;20036;-72
2022/01/02 09:54:04;;;;;;;3.28;1.83;;;;;;;13.56;71.25;100940.66;5090750;28;20040;-71
2022/01/02 09:56:31;;;;;;;3.25;1.40;;;;;;;13.61;70.86;100938.47;5092031;28;20119;-72
2022/01/02 09:58:57;;;;;;;4.70;1.65;;;;;;;13.72;71.36;100942.63;5082415;28;20050;-71
2022/01/02 10:01:25;;;;;;;3.70;1.58;;;;;;;13.78;71.37;100933.34;5070101;28;20117;-71
2022/01/02 10:03:57;;;;;;;6.15;2.05;;;;;;;13.77;70.00;100934.31;5072121;28;20139;-73
2022/01/02 10:06:40;;;;;;;3.65;1.13;;;;;;;13.81;71.55;100949.75;5066593;28;20044;-72
2022/01/02 10:09:08;;;;;;;;;;;;;;;14.03;69.99;100946.03;5075848;28;20048;-74
2022/01/02 10:11:37;;;;;;;2.72;1.17;;;;;;;14.20;69.54;100948.81;5062989;28;19931;-73
2022/01/02 10:14:05;;;;;;;4.30;1.52;;;;;;;14.24;68.21;100939.66;5055349;28;20043;-73
2022/01/02 10:16:33;;;;;;;3.88;1.20;;;;;;;14.62;67.29;100955.47;5071310;28;20040;-72
2022/01/02 10:19:03;;;;;;;3.35;1.50;;;;;;;14.62;68.57;100943.09;5055771;28;20067;-73
2022/01/02 10:21:32;;;;;;;2.67;1.48;;;;;;;14.98;66.82;100942.31;5074944;28;20036;-72
2022/01/02 10:24:13;;;;;;;4.93;1.90;;;;;;;15.20;66.16;100934.03;5073860;28;20052;-72
2022/01/02 10:26:40;;;;;;;4.05;1.65;;;;;;;15.27;66.20;100936.97;5065820;28;20040;-73
2022/01/02 10:29:12;;;;;;;2.35;1.08;;;;;;;15.12;65.47;100931.28;5051646;28;20064;-73
2022/01/02 10:31:38;;;;;;;7.30;1.67;;;;;;;15.09;64.74;100913.03;5063623;28;20036;-73
2022/01/02 10:34:07;;;;;;;3.67;1.77;;;;;;;15.26;66.30;100930.00;5067289;28;20044;-72
2022/01/02 10:36:35;;;;;;;3.03;1.52;;;;;;;15.22;66.12;100934.72;5071697;28;20060;-71
2022/01/02 10:39:14;;;;;;;4.43;1.40;;;;;;;15.24;65.82;100932.78;5068357;28;20043;-73
2022/01/02 10:41:43;;;;;;;4.05;1.70;;;;;;;15.01;65.30;100931.44;5075080;28;20040;-72
2022/01/02 10:44:26;;;;;;;4.53;1.92;;;;;;;14.65;68.30;100948.09;5069992;28;20494;-73
2022/01/02 10:47:10;;;;;;;3.13;1.80;;;;;;;14.29;69.59;100958.56;5070772;28;20070;-73
2022/01/02 10:50:01;;;;;;;5.10;1.58;;;;;;;14.03;70.42;100972.44;5071011;28;20346;-71
2022/01/02 10:52:29;;;;;;;11.73;2.55;;;;;;;13.90;71.36;100963.94;5069618;28;20040;-72
2022/01/02 10:54:57;;;;;;;2.63;1.50;;;;;;;13.80;72.29;100957.81;5071919;28;20044;-72
2022/01/02 10:57:24;;;;;;;5.72;2.08;;;;;;;14.35;71.40;100957.19;5075013;28;20044;-71
2022/01/02 10:59:53;;;;;;;7.38;1.95;;;;;;;14.49;69.41;100941.72;5073965;28;20048;-74
2022/01/02 11:02:19;;;;;;;4.53;1.98;;;;;;;14.20;69.91;100948.81;5070896;28;20051;-71
2022/01/02 11:04:48;;;;;;;4.20;1.42;;;;;;;13.98;70.80;100953.53;5074527;28;20098;-71
2022/01/02 11:07:22;;;;;;;3.55;1.85;;;;;;;13.92;72.79;100956.69;5071464;28;20058;-72
2022/01/02 11:09:52;;;;;;;7.05;2.35;;;;;;;13.83;73.09;100963.66;5070924;28;20059;-74
2022/01/02 11:12:19;;;;;;;8.25;2.05;;;;;;;13.79;73.04;100956.13;5073674;28;20040;-72
2022/01/02 11:14:45;;;;;;;3.90;1.75;;;;;;;13.79;73.72;100938.47;5071806;28;20040;-72
2022/01/02 11:17:13;;;;;;;5.15;1.75;;;;;;;13.90;74.33;100934.91;5067734;28;20090;-72
2022/01/02 11:19:40;;;;;;;4.15;1.95;;;;;;;13.85;73.53;100937.94;5071302;28;20048;-71
2022/01/02 11:22:09;;;;;;;5.90;1.98;;;;;;;13.85;73.94;100923.91;5068669;28;20048;-72
2022/01/02 11:24:44;;;;;;;4.30;2.03;;;;;;;13.97;73.09;100943.94;5070417;28;20071;-72
2022/01/02 11:27:21;;;;;;;2.55;1.25;;;;;;;14.11;73.10;100927.69;5071508;28;20041;-72
2022/01/02 11:29:47;;;;;;;7.05;1.52;;;;;;;14.22;74.04;100924.94;5068121;28;20043;-73
2022/01/02 11:32:22;;;;;;;4.50;1.65;;;;;;;14.12;73.99;100926.72;5073249;28;20036;-75